KBVY/BVY METAR and TAF weather

Enter ICAO airport designator
Station Type Date Time Source
KBVY METAR 2019/08/22 14:53 UTC NOAA

KBVY 221453Z 20006KT 10SM CLR 29/23 A2983 RMK AO2 SLP094 T02890228 58003


Station Type Date Time Source
KBVY Decoded METAR 2019/08/22 14:53 UTC NOAA

Station name not available
Aug 22, 2019 - 10:53 AM EDT / 2019.08.22 1453 UTC
Wind: from the SSW (200 degrees) at 7 MPH (6 KT):0
Visibility: 10 mile(s):0
Sky conditions: clear
Temperature: 84.0 F (28.9 C)
Dew Point: 73.0 F (22.8 C)
Relative Humidity: 69%
Pressure (altimeter): 29.83 in. Hg (1010 hPa)
Pressure tendency: 0.01 inches (0.3 hPa) lower than three hours ago
ob: KBVY 221453Z 20006KT 10SM CLR 29/23 A2983 RMK AO2 SLP094 T02890228 58003
cycle: 15

Station Type Date Time Source
KBVY TAF UTC NOAA

Error!

Example: see airport list